Date,TemperatureHighF,TemperatureAvgF,TemperatureLowF,DewpointHighF,DewpointAvgF,DewpointLowF,HumidityHigh,HumidityAvg,HumidityLow,PressureMaxIn,PressureMinIn,WindSpeedMaxMPH,WindSpeedAvgMPH,GustSpeedMaxMPH,PrecipitationSumIn
2014-1-1,29.9,21.1,23.4,17.6,-10.0,-99.9,69,45,48,30.44,30.23,14,-203,15,0.00
2014-1-2,31.5,20.8,23.6,30.5,-7.3,-99.9,96,67,58,30.39,29.70,16,-260,17,0.00
2014-1-3,26.5,9.4,5.5,25.8,-22.3,-99.9,100,60,64,30.46,29.53,16,-262,16,0.00
2014-1-4,39.0,19.7,3.9,33.7,-10.5,-99.9,86,58,57,30.58,30.34,15,-206,15,0.02
2014-1-5,41.9,28.8,28.5,41.3,2.3,-99.9,98,68,76,30.39,29.99,10,-242,11,0.06
2014-1-6,55.1,31.5,31.0,55.0,2.5,-99.9,100,67,60,29.99,29.40,15,-272,15,0.07
2014-1-7,31.0,9.7,10.8,19.9,-29.8,-99.9,63,37,43,30.34,29.57,16,-290,19,0.07
2014-1-8,22.8,15.6,10.7,14.5,-9.6,-99.9,72,51,53,30.55,30.33,13,-151,13,0.00
2014-1-9,29.1,17.1,14.4,14.1,-12.0,-99.9,89,52,46,30.71,30.49,11,-207,11,0.00
2014-1-10,40.4,27.2,14.0,39.6,4.2,-99.9,98,73,70,30.67,30.33,8,-214,11,0.04
2014-1-11,57.5,36.9,38.2,57.2,8.6,-99.9,99,71,93,30.33,29.38,14,-276,16,0.26
2014-1-12,48.6,29.1,36.2,48.3,-8.4,-99.9,99,47,57,30.03,29.37,15,-303,16,0.26
2014-1-13,48.0,34.2,34.9,45.8,11.1,-99.9,93,68,70,30.22,30.00,18,-192,19,0.00
2014-1-14,51.7,37.8,43.6,51.1,14.6,-99.9,99,75,90,30.00,29.62,16,-222,17,0.82
2014-1-15,46.2,28.4,34.5,42.5,-2.3,-99.9,98,65,75,30.09,29.80,6,-289,6,0.82
2014-1-16,42.5,31.7,36.4,41.7,10.5,-99.9,100,78,95,29.97,29.87,5,-206,5,0.00
2014-1-17,40.6,29.3,33.1,39.0,4.0,-99.9,99,69,79,30.05,29.96,9,-228,9,0.01
2014-1-18,40.4,27.2,34.2,39.5,-0.4,-99.9,98,70,94,29.97,29.61,13,-268,13,0.17
2014-1-19,37.5,27.0,31.8,33.3,0.6,-99.9,94,62,70,29.80,29.65,22,-211,22,0.17
2014-1-20,43.1,31.6,32.5,34.1,5.2,-99.9,81,57,57,29.89,29.57,14,-190,16,0.00
2014-1-21,32.5,16.5,16.5,22.5,-10.8,-99.9,95,62,45,30.08,29.77,13,-228,15,0.00
2014-1-22,23.5,11.5,10.7,22.0,-22.1,-99.9,94,56,58,29.92,29.57,13,-294,17,0.00
2014-1-23,22.2,13.0,6.4,11.2,-12.5,-99.9,73,50,44,30.23,29.92,17,-150,17,0.00
2014-1-24,21.8,13.0,10.0,15.1,-12.8,-99.9,75,48,43,30.31,30.12,14,-148,14,0.00
2014-1-25,40.5,28.1,21.8,33.7,5.8,-99.9,96,66,67,30.12,29.38,28,-166,28,0.00
2014-1-26,26.6,25.3,23.1,21.5,18.3,12.8,83,74,63,29.94,29.90,11,2,12,0.00
2014-1-27,47.8,31.7,24.7,42.9,9.1,-99.9,92,62,38,30.02,29.61,19,-152,20,0.00
2014-1-28,24.7,15.5,14.3,7.3,-20.2,-99.9,52,32,31,30.35,30.00,13,-188,16,0.00
2014-1-29,23.8,16.3,13.9,16.1,-14.0,-99.9,92,50,42,30.28,30.05,14,-213,15,0.00
2014-1-30,30.9,20.6,16.1,26.1,-4.4,-99.9,84,54,43,30.50,30.28,10,-156,10,0.00
2014-1-31,35.8,27.8,30.5,30.9,3.8,-99.9,89,62,57,30.28,30.09,14,-181,14,0.00
2014-2-1,35.2,35.0,34.5,26.3,25.6,25.2,71,68,67,30.25,30.22,3,1,4,0.00
2014-2-15,31.2,31.0,30.8,30.7,30.5,30.3,98,98,98,29.36,29.35,5,3,5,0.00
2014-2-16,30.7,29.9,28.4,30.2,29.4,27.9,100,98,97,29.45,29.36,5,3,5,0.00
2014-2-17,30.1,23.3,15.5,12.8,10.2,7.1,86,59,38,30.40,30.25,10,1,10,0.00
2014-2-18,37.1,24.8,13.4,36.6,7.5,-99.9,98,74,70,30.39,29.87,18,-141,18,0.45
2014-2-19,44.1,27.8,25.5,43.5,4.1,-99.9,98,72,80,30.16,29.71,18,-218,19,0.36
2014-2-20,42.1,30.3,33.6,34.8,8.0,-99.9,98,69,66,30.28,29.86,11,-186,11,0.11
2014-2-21,53.8,35.7,33.8,53.5,19.3,-99.9,99,83,96,30.20,29.76,13,-159,14,0.11
2014-2-22,43.9,32.2,36.0,41.0,8.4,-99.9,100,67,64,30.07,29.89,17,-198,17,0.11
2014-2-23,45.9,36.1,36.0,42.5,22.2,-99.9,95,80,75,30.07,29.82,12,-110,12,0.00
2014-2-24,41.0,29.2,25.4,36.2,1.6,-99.9,93,47,41,30.01,29.76,20,-142,20,0.01
2014-2-25,29.4,23.2,22.0,15.4,0.3,-99.9,65,50,47,30.06,29.91,18,-103,18,0.00
2014-2-26,31.0,22.0,17.9,23.9,-0.9,-99.9,92,53,37,30.01,29.81,16,-118,16,0.00
2014-2-27,30.9,21.3,12.4,27.1,-0.9,-99.9,94,54,45,29.92,29.61,17,-118,17,0.00
2014-3-2,36.9,34.0,32.1,30.9,29.2,27.0,94,83,70,30.09,29.98,8,0,8,0.00
2014-3-3,32.0,16.5,16.3,30.5,-14.2,-99.9,94,49,50,30.33,29.97,10,-219,12,0.00
2014-3-4,29.0,21.4,13.7,18.3,0.7,-99.9,68,55,49,30.41,30.30,9,-101,9,0.00
2014-3-5,34.7,25.2,23.5,26.0,7.0,-99.9,89,65,51,30.47,30.26,12,-112,12,0.00
2014-3-6,28.3,19.4,17.0,18.4,-2.9,-99.9,92,62,62,30.64,30.47,13,-160,13,0.00
2014-3-7,38.0,27.2,15.4,33.4,12.8,-99.9,93,74,70,30.57,29.95,9,-100,10,0.00
2014-3-8,51.3,34.2,31.4,37.5,17.8,-99.9,96,73,43,29.95,29.71,10,-113,10,0.00
2014-3-9,41.6,30.6,28.6,30.0,6.2,-99.9,85,52,34,29.97,29.87,12,-124,12,0.00
2014-3-10,38.4,29.6,30.7,35.1,11.6,-99.9,96,72,56,29.94,29.72,11,-137,12,0.01
2014-3-11,48.6,37.0,35.1,39.1,22.8,-99.9,96,75,68,29.76,29.57,12,-97,12,0.01
2014-3-12,52.4,40.4,36.6,51.4,27.5,-99.9,99,81,83,29.76,28.99,18,-102,22,0.16
2014-3-13,47.1,18.7,19.3,46.5,-8.6,-99.9,98,60,53,29.98,28.97,19,-218,20,0.16
2014-3-14,38.3,25.6,17.0,34.0,8.7,-99.9,85,62,52,30.26,29.98,17,-79,18,0.00
2014-3-15,47.9,37.1,38.3,41.5,19.5,-99.9,95,70,57,30.03,29.74,17,-121,17,0.01
2014-3-16,41.6,30.6,29.7,32.7,4.4,-99.9,74,44,34,30.21,29.93,13,-98,14,0.00
2014-3-17,29.3,21.7,18.3,18.1,0.1,-99.9,88,57,38,30.21,30.06,15,-123,15,0.00
2014-3-18,38.8,25.7,16.4,25.0,9.6,-99.9,91,66,46,30.39,30.20,15,-82,15,0.00
2014-3-19,41.2,31.7,21.9,35.6,19.9,-99.9,95,75,68,30.42,30.00,12,-66,13,0.00
2014-3-20,47.7,38.0,36.9,45.4,26.1,-99.9,99,81,67,30.03,29.67,15,-84,19,0.33
2014-3-21,44.3,35.7,35.1,34.8,12.8,-99.9,89,53,47,30.07,29.82,15,-107,18,0.00
2014-3-22,35.1,34.1,33.1,25.4,25.0,24.7,72,69,66,30.09,30.06,4,2,4,0.00
2014-3-23,40.2,35.4,30.9,27.2,17.9,9.1,67,49,35,30.03,29.91,11,3,11,0.00
2014-3-24,32.2,23.4,17.4,16.7,-2.5,-99.9,76,44,31,30.18,30.03,14,-101,14,0.00
2014-3-25,34.7,27.3,18.8,19.2,6.9,-99.9,87,51,37,30.21,29.88,13,-64,13,0.00
2014-3-26,35.0,25.3,24.9,27.8,-0.7,-99.9,96,54,38,30.02,29.50,26,-157,26,0.00
2014-3-27,36.1,28.3,21.2,31.1,8.8,-99.9,82,54,34,30.38,30.02,18,-58,22,0.00
2014-3-28,53.5,41.7,36.2,45.8,31.2,-99.9,97,80,74,30.34,30.05,36,-58,36,0.05
2014-3-29,51.8,39.6,38.3,48.5,26.5,-99.9,98,83,77,30.27,29.96,13,-115,15,1.08
2014-3-30,56.8,32.6,37.3,56.5,6.9,-99.9,99,74,97,29.96,29.57,8,-252,10,0.17
2014-3-31,38.4,30.9,33.8,36.5,15.4,-99.9,100,80,82,29.99,29.64,15,-139,22,0.01
2014-4-1,45.4,34.7,35.3,33.7,14.8,-99.9,93,63,54,30.15,29.99,14,-119,16,0.01
2014-4-2,44.1,36.1,28.7,37.7,24.1,-99.9,97,77,71,30.19,30.08,10,-77,11,0.00
2014-4-3,53.4,40.0,33.9,38.5,25.1,-99.9,98,69,35,30.15,30.07,9,-66,11,0.00
2014-4-4,46.6,36.5,34.2,38.2,23.1,-99.9,95,77,62,30.19,29.84,14,-90,16,0.01
2014-4-5,48.4,44.0,39.5,46.1,38.9,27.6,98,83,57,29.96,29.70,16,5,16,0.14
2014-4-6,42.7,40.7,38.9,37.3,35.8,28.1,90,83,63,30.22,29.95,15,5,18,0.00
2014-4-7,49.8,41.9,34.7,43.8,31.5,-99.9,97,77,53,30.28,29.91,11,-47,15,0.15
2014-4-8,55.2,40.3,42.9,54.9,25.1,-99.9,99,83,71,29.91,29.43,18,-144,22,0.30
2014-4-9,55.8,42.7,40.8,43.2,23.6,-99.9,85,62,42,29.98,29.55,12,-100,14,0.00
2014-4-10,48.2,40.4,29.4,43.2,22.7,-99.9,85,61,42,30.25,29.98,19,-68,20,0.00
2014-4-11,53.9,44.8,45.3,46.8,33.6,-99.9,92,79,76,30.11,29.99,17,-66,18,0.00
2014-4-12,60.8,47.6,44.9,48.1,33.2,-99.9,94,70,39,30.28,29.99,14,-63,14,0.00
2014-4-13,59.7,49.9,41.2,53.3,40.1,-99.9,94,78,53,30.31,30.11,14,-38,15,0.00
2014-4-14,60.2,52.8,48.4,55.2,45.1,-99.9,98,86,81,30.13,30.00,22,-39,24,0.00
2014-4-15,62.7,54.4,51.6,57.9,45.3,-99.9,98,85,80,30.00,29.64,29,-56,31,0.10
2014-4-16,51.7,34.8,33.0,50.9,12.9,-99.9,97,59,43,30.61,29.68,15,-121,17,0.40
2014-4-17,42.2,35.3,32.8,31.6,21.0,-99.9,80,66,62,30.79,30.60,12,-53,13,0.00
2014-4-18,45.5,37.7,30.4,39.1,27.3,-99.9,93,77,71,30.67,30.29,7,-54,10,0.00
2014-4-19,59.2,45.9,38.3,45.1,31.4,-99.9,94,68,46,30.41,30.20,10,-53,13,0.00
2014-4-20,51.3,43.2,35.9,39.3,30.7,-99.9,89,67,35,30.54,30.38,13,-26,15,0.00
2014-4-21,56.5,46.7,39.8,47.2,38.6,-99.9,94,81,67,30.37,29.91,10,-29,10,0.00
2014-4-22,57.7,49.0,43.0,50.4,40.6,-99.9,96,82,74,29.91,29.53,15,-42,15,0.05
2014-4-23,56.7,47.3,44.2,55.8,39.2,-99.9,99,84,63,29.60,29.39,15,-42,18,0.52
2014-4-24,58.6,48.1,41.8,38.4,26.2,-99.9,71,48,32,29.92,29.60,19,-35,19,0.52
2014-4-25,56.9,47.8,42.2,40.2,30.7,-99.9,75,57,37,30.04,29.91,11,-30,12,0.00
2014-4-27,48.7,45.4,43.0,43.0,41.3,40.2,93,86,77,30.05,29.93,7,1,8,0.00
2014-4-28,54.5,45.1,39.8,42.6,32.1,-99.9,91,71,57,30.21,29.99,15,-54,15,0.00
2014-4-29,46.7,40.9,41.5,40.0,28.5,-99.9,91,74,70,30.54,30.20,12,-67,17,0.00
2014-4-30,47.0,40.0,39.9,45.8,29.1,-99.9,98,82,79,30.55,30.19,17,-78,19,0.38
2014-5-1,58.7,45.5,46.3,58.4,33.8,-99.9,100,88,98,30.19,29.71,13,-112,13,0.54
2014-5-2,62.4,48.2,46.7,51.0,36.6,-99.9,100,79,51,29.84,29.69,16,-69,16,0.01
2014-5-3,62.8,51.4,41.9,50.7,40.6,-99.9,100,74,49,29.91,29.78,12,-31,13,0.00
2014-5-4,59.5,51.4,48.5,49.7,40.1,-99.9,95,72,54,29.78,29.56,22,-30,24,0.02
2014-5-5,59.7,51.9,47.5,51.1,40.3,-99.9,94,72,61,29.87,29.64,14,-36,14,0.03
2014-5-6,59.5,50.5,41.6,47.5,40.1,-99.9,94,72,52,30.04,29.85,12,-22,14,0.03
2014-5-7,60.5,50.9,41.3,46.7,37.5,-99.9,92,66,44,30.23,30.04,13,-23,13,0.00
2014-5-8,56.6,52.2,47.9,54.0,49.3,44.5,98,90,76,30.23,30.13,10,3,12,0.00
2014-5-9,56.9,50.4,50.6,55.4,42.3,-99.9,98,86,75,30.27,30.11,9,-53,11,0.00
2014-5-10,60.5,51.3,53.7,59.4,40.3,-99.9,97,85,88,30.11,29.83,17,-87,18,0.00
2014-5-11,64.4,54.3,53.0,58.6,44.2,-99.9,98,79,68,30.05,29.83,15,-49,17,0.16
2014-5-12,69.7,59.3,48.9,54.8,50.5,44.0,94,74,44,30.15,30.05,14,4,15,0.00
2014-5-13,57.2,52.5,46.8,53.1,44.9,41.8,92,76,62,30.34,30.05,11,2,11,0.00
2014-5-14,57.5,49.2,46.5,54.0,39.2,-99.9,94,82,81,30.37,30.30,9,-66,10,0.00
2014-5-15,68.3,60.7,55.8,62.7,57.9,54.0,96,90,81,30.33,30.24,12,2,12,0.00
2014-5-16,67.3,61.6,57.1,61.4,58.6,56.0,97,90,80,30.25,30.06,16,4,17,0.00
2014-5-18,60.4,56.0,49.9,51.9,50.2,47.4,92,81,71,30.04,30.02,4,0,5,0.00
2014-5-19,65.5,57.0,49.7,48.9,43.7,37.2,93,63,36,30.10,30.01,11,2,14,0.01
2014-5-20,69.7,56.1,50.9,54.6,42.3,-99.9,93,70,47,30.04,29.96,10,-49,11,0.06
2014-5-21,63.8,56.5,47.1,57.6,52.7,45.9,97,88,70,30.01,29.96,9,1,10,0.00
2014-5-22,58.6,54.6,52.6,54.4,52.8,51.3,97,94,84,29.98,29.88,9,1,9,0.07
2014-5-26,62.8,60.8,59.1,58.4,57.6,56.8,92,89,83,29.88,29.85,11,4,11,0.00
2014-5-27,72.2,60.0,52.8,62.1,56.4,51.4,96,88,67,29.91,29.82,9,1,11,0.00
2014-5-28,53.0,48.0,47.5,52.0,42.1,-99.9,98,91,90,30.20,29.86,8,-45,9,0.01
2014-5-29,63.2,50.0,43.3,51.1,39.3,-99.9,96,77,53,30.25,30.17,11,-50,11,0.00
2014-5-30,61.0,52.6,41.2,51.0,46.7,40.1,98,81,59,30.19,30.03,11,1,11,0.00
2014-5-31,53.8,53.1,52.7,50.1,49.6,48.9,90,88,85,30.05,30.05,0,0,0,0.00
2014-6-1,68.4,57.4,55.0,54.5,50.1,46.5,85,77,49,30.29,30.27,7,0,7,0.00
2014-6-2,67.0,60.7,53.9,57.5,53.7,47.9,87,78,67,30.28,30.07,8,2,9,0.00
2014-6-3,67.6,61.1,55.5,60.0,54.6,48.7,91,79,66,30.08,29.92,11,2,13,0.00
2014-6-4,61.2,57.9,54.8,59.2,56.5,53.0,98,95,86,29.92,29.80,6,0,7,0.02
2014-6-5,63.5,55.2,57.2,63.2,47.6,-99.9,99,91,97,29.81,29.58,3,-71,3,0.30
2014-6-6,73.9,63.3,56.7,62.2,58.7,56.1,99,86,59,29.88,29.72,8,1,10,0.30
2014-6-7,74.1,66.0,56.5,63.5,59.3,54.0,93,79,65,29.96,29.88,7,1,8,0.00
2014-11-23,60.2,36.9,44.0,59.6,34.5,39.8,98,65,62,30.20,29.77,8,2,0,0.04
2014-11-24,62.7,43.8,53.4,62.1,43.1,52.8,100,72,93,29.96,29.71,2,0,0,0.00
2014-11-25,55.2,34.2,42.7,53.4,29.6,37.8,97,53,58,30.22,29.94,5,1,0,0.13
2014-11-26,44.3,28.6,34.9,43.8,27.6,33.8,99,65,82,30.08,29.54,9,3,0,1.56
2014-11-27,40.7,26.8,30.2,35.1,24.7,27.9,96,68,79,30.08,29.97,5,1,0,0.02
2014-11-28,34.8,25.1,23.4,28.5,18.7,17.6,88,60,55,30.40,30.08,5,2,0,0.00
2014-11-29,40.5,33.9,31.9,34.5,23.3,17.3,79,65,53,30.39,30.32,9,2,9,0.00
2014-11-30,53.9,40.5,40.6,49.8,36.9,34.6,94,67,76,30.33,30.11,13,4,17,0.00
2014-12-1,55.4,40.1,42.2,51.7,37.3,38.6,93,68,70,30.43,30.08,15,4,15,0.06
2014-12-2,44.7,30.8,36.7,43.1,25.9,27.9,94,61,67,30.71,30.40,15,2,15,0.04
2014-12-3,52.9,38.8,44.0,52.0,37.3,37.8,97,73,78,30.40,29.94,11,0,11,0.04
2014-12-4,43.9,28.9,30.6,37.0,19.9,24.1,79,46,48,30.57,30.12,13,2,13,0.04
2014-12-5,43.7,32.4,28.6,40.4,26.6,24.1,91,62,65,30.70,30.45,20,2,20,0.02
2014-12-6,48.8,31.2,39.8,48.0,30.4,38.8,97,65,91,30.45,30.14,11,1,11,1.12
2014-12-7,39.5,22.9,29.9,32.0,15.9,19.5,76,43,57,30.64,30.17,22,4,22,1.12
2014-12-8,39.4,26.8,29.7,37.5,22.6,21.7,93,61,73,30.74,30.47,14,2,14,0.00
2014-12-9,52.5,18.2,39.5,52.0,17.8,37.4,98,37,91,30.47,29.52,18,1,18,0.82
2014-12-10,44.7,26.8,40.1,44.4,26.4,37.1,99,61,89,29.58,29.46,1,0,1,0.84
2014-12-11,40.4,27.0,33.7,37.9,23.6,27.7,96,62,72,29.87,29.51,11,1,11,0.00
2014-12-12,39.4,26.5,31.6,31.5,22.1,27.6,85,59,71,29.93,29.86,8,2,11,0.00
2014-12-13,41.0,28.1,31.9,32.2,23.4,28.2,86,61,69,29.91,29.80,8,2,10,0.00
2014-12-14,43.1,28.7,31.4,33.6,24.5,27.3,91,65,66,29.94,29.82,7,1,7,0.00
2014-12-15,42.5,28.6,30.2,34.8,25.5,27.6,95,68,72,30.18,29.94,5,1,7,0.00
2014-12-16,46.6,33.0,36.4,45.8,31.3,34.3,97,71,87,30.19,29.92,7,0,7,0.00
2014-12-17,49.7,33.3,42.7,49.2,31.4,36.6,98,66,78,29.92,29.72,8,0,8,0.01
2014-12-18,43.6,29.1,36.8,37.4,23.6,30.7,84,54,65,29.91,29.77,14,3,14,0.00
2014-12-19,36.9,27.9,31.6,31.4,22.0,24.3,81,59,70,30.17,29.90,9,2,9,0.00
2014-12-20,38.0,25.4,30.8,36.0,23.3,24.3,96,65,75,30.31,30.17,7,1,7,0.00
2014-12-21,42.4,28.9,35.9,36.3,26.1,33.6,95,64,72,30.37,30.28,7,0,7,0.00
2014-12-22,46.8,32.3,34.7,41.8,30.0,33.9,97,68,79,30.41,30.30,11,1,11,0.00
2014-12-23,48.3,34.1,41.7,47.7,33.4,39.8,98,70,91,30.30,30.12,8,0,8,0.12
2014-12-24,61.2,37.9,45.8,60.2,37.5,45.3,99,71,98,30.12,29.64,1,0,1,0.61
2014-12-25,59.3,31.7,44.3,58.5,27.6,34.6,100,53,60,30.02,29.57,10,0,10,0.68
2014-12-26,48.1,33.9,40.5,38.2,27.4,34.2,85,55,61,30.23,30.02,8,2,10,0.00
2014-12-27,47.7,25.1,37.2,39.7,21.2,32.9,87,47,64,30.28,30.18,9,1,9,0.00
2015-1-1,40.9,18.7,35.9,24.4,11.1,22.0,60,26,47,30.17,30.02,9,3,0,0.00
2015-1-2,40.7,27.4,27.0,24.8,16.9,16.3,65,46,48,30.72,30.15,8,3,0,0.00